createdAt,value
2022-12-18T00:02:50.574Z,14.95
2022-12-18T00:05:53.786Z,15.55
2022-12-18T00:08:57.955Z,15.80
2022-12-18T00:15:18.156Z,16.12
2022-12-18T00:18:20.883Z,14.32
2022-12-18T00:21:23.470Z,16.10
2022-12-18T00:24:26.170Z,14.90
2022-12-18T00:27:28.576Z,15.35
2022-12-18T00:30:31.182Z,15.00
2022-12-18T00:33:34.355Z,14.57
2022-12-18T00:36:37.259Z,15.15
2022-12-18T00:39:39.495Z,14.60
2022-12-18T00:43:08.041Z,14.02
2022-12-18T00:46:10.340Z,14.80
2022-12-18T00:49:13.079Z,14.25
2022-12-18T00:52:15.381Z,11.95
2022-12-18T00:55:19.133Z,13.83
2022-12-18T00:58:22.825Z,14.40
2022-12-18T01:01:25.607Z,13.65
2022-12-18T01:04:27.947Z,14.05
2022-12-18T01:07:30.480Z,14.25
2022-12-18T01:10:32.849Z,14.03
2022-12-18T01:13:35.865Z,14.10
2022-12-18T01:16:38.296Z,13.00
2022-12-18T01:19:41.310Z,13.75
2022-12-18T01:22:45.800Z,14.43
2022-12-18T01:25:48.330Z,14.63
2022-12-18T01:28:50.599Z,13.60
2022-12-18T01:31:56.436Z,14.05
2022-12-18T01:34:58.944Z,15.27
2022-12-18T01:38:02.942Z,13.98
2022-12-18T01:41:05.285Z,14.30
2022-12-18T01:44:46.411Z,15.20
2022-12-18T01:47:52.174Z,15.15
2022-12-18T01:50:55.262Z,14.80
2022-12-18T01:53:58.274Z,14.32
2022-12-18T01:57:02.000Z,14.60
2022-12-18T02:00:09.637Z,16.48
2022-12-18T02:03:15.567Z,14.82
2022-12-18T02:06:42.129Z,17.73
2022-12-18T02:10:16.032Z,15.40
2022-12-18T02:13:39.500Z,14.13
2022-12-18T02:17:06.110Z,15.80
2022-12-18T02:20:20.898Z,14.80
2022-12-18T02:23:29.314Z,15.95
2022-12-18T02:26:40.142Z,15.77
2022-12-18T02:29:57.627Z,14.77
2022-12-18T02:33:05.004Z,14.05
2022-12-18T02:36:11.034Z,14.77
2022-12-18T02:39:16.390Z,14.20
2022-12-18T02:42:20.302Z,16.65
2022-12-18T02:45:23.883Z,15.13
2022-12-18T02:48:34.793Z,13.50
2022-12-18T02:52:02.331Z,14.05
2022-12-18T02:55:35.440Z,14.48
2022-12-18T02:58:41.176Z,14.35
2022-12-18T03:01:52.971Z,15.13
2022-12-18T03:05:10.236Z,14.68
2022-12-18T03:08:23.560Z,14.52
2022-12-18T03:11:47.634Z,14.05
2022-12-18T03:14:56.627Z,14.18
2022-12-18T03:18:09.947Z,15.23
2022-12-18T03:21:14.794Z,15.27
2022-12-18T03:24:19.910Z,14.93
2022-12-18T03:27:25.469Z,14.10
2022-12-18T03:30:33.716Z,15.27
2022-12-18T03:33:43.602Z,16.40
2022-12-18T03:36:46.349Z,14.98
2022-12-18T03:39:48.875Z,14.23
2022-12-18T03:43:00.954Z,14.87
2022-12-18T03:46:15.960Z,15.13
2022-12-18T03:49:27.471Z,15.57
2022-12-18T03:52:43.671Z,14.13
2022-12-18T03:55:48.515Z,14.48
2022-12-18T03:58:53.710Z,15.52
2022-12-18T04:02:00.326Z,14.60
2022-12-18T04:05:06.879Z,15.00
2022-12-18T04:08:10.182Z,13.88
2022-12-18T04:11:13.577Z,14.00
2022-12-18T04:14:18.287Z,15.82
2022-12-18T04:17:23.593Z,14.27
2022-12-18T04:20:25.966Z,14.80
2022-12-18T04:23:29.402Z,15.15
2022-12-18T04:26:32.106Z,15.75
2022-12-18T04:29:35.371Z,15.65
2022-12-18T04:32:37.886Z,15.07
2022-12-18T04:35:41.958Z,14.47
2022-12-18T04:38:44.381Z,16.65
2022-12-18T04:41:47.319Z,14.32
2022-12-18T04:44:49.892Z,15.75
2022-12-18T04:47:52.462Z,16.87
2022-12-18T04:50:54.721Z,17.03
2022-12-18T04:53:57.320Z,16.95
2022-12-18T04:56:59.688Z,16.83
2022-12-18T05:00:02.512Z,14.55
2022-12-18T05:03:04.866Z,15.82
2022-12-18T05:06:08.317Z,15.50
2022-12-18T05:09:10.525Z,15.20
2022-12-18T05:12:13.131Z,15.35
2022-12-18T05:15:15.447Z,15.45
2022-12-18T05:18:18.019Z,15.38
2022-12-18T05:21:20.286Z,16.40
2022-12-18T05:24:22.804Z,16.55
2022-12-18T05:27:25.111Z,15.30
2022-12-18T05:30:28.608Z,17.08
2022-12-18T05:33:33.656Z,16.20
2022-12-18T05:36:36.526Z,16.83
2022-12-18T05:39:38.733Z,16.80
2022-12-18T05:42:41.475Z,19.05
2022-12-18T05:45:43.898Z,16.12
2022-12-18T05:48:46.968Z,17.08
2022-12-18T05:51:49.255Z,16.53
2022-12-18T05:54:51.802Z,17.70
2022-12-18T05:57:54.050Z,16.95
2022-12-18T06:00:56.596Z,17.52
2022-12-18T06:03:59.331Z,16.08
2022-12-18T06:07:04.426Z,15.87
2022-12-18T06:10:07.683Z,16.45
2022-12-18T06:13:10.086Z,15.27
2022-12-18T06:16:12.733Z,15.30
2022-12-18T06:19:16.769Z,16.30
2022-12-18T06:22:19.367Z,16.27
2022-12-18T06:25:21.627Z,17.37
2022-12-18T06:28:24.300Z,17.70
2022-12-18T06:31:27.228Z,19.17
2022-12-18T06:34:33.480Z,17.27
2022-12-18T06:37:35.729Z,16.00
2022-12-18T06:40:40.033Z,15.95
2022-12-18T06:43:43.044Z,16.92
2022-12-18T06:46:45.845Z,17.75
2022-12-18T06:49:48.139Z,18.20
2022-12-18T06:52:50.665Z,16.13
2022-12-18T06:55:53.059Z,18.48
2022-12-18T06:58:56.018Z,20.58
2022-12-18T07:01:58.405Z,21.90
2022-12-18T07:05:07.497Z,19.95
2022-12-18T07:08:12.687Z,20.00
2022-12-18T07:11:16.253Z,17.73
2022-12-18T07:14:18.580Z,17.67
2022-12-18T07:17:21.110Z,20.00
2022-12-18T07:20:23.401Z,20.02
2022-12-18T07:23:26.031Z,19.60
2022-12-18T07:26:28.293Z,18.80
2022-12-18T07:29:30.960Z,19.80
2022-12-18T07:32:33.312Z,20.33
2022-12-18T07:35:35.973Z,18.48
2022-12-18T07:38:38.551Z,19.30
2022-12-18T07:41:47.387Z,17.87
2022-12-18T07:44:51.586Z,18.92
2022-12-18T07:47:54.127Z,17.30
2022-12-18T07:51:00.901Z,18.00
2022-12-18T07:54:03.596Z,18.23
2022-12-18T07:57:16.441Z,18.00
2022-12-18T08:00:28.354Z,17.73
2022-12-18T08:03:31.263Z,18.77
2022-12-18T08:06:33.490Z,19.10
2022-12-18T08:09:36.109Z,17.30
2022-12-18T08:12:38.467Z,17.85
2022-12-18T08:15:40.974Z,19.05
2022-12-18T08:18:43.244Z,17.48
2022-12-18T08:21:45.766Z,18.55
2022-12-18T08:24:48.057Z,20.27
2022-12-18T08:27:50.690Z,18.33
2022-12-18T08:30:53.671Z,18.37
2022-12-18T08:33:56.683Z,20.73
2022-12-18T08:36:59.227Z,18.60
2022-12-18T08:40:02.006Z,18.13
2022-12-18T08:43:23.159Z,18.80
2022-12-18T08:46:27.627Z,16.80
2022-12-18T08:49:30.185Z,18.12
2022-12-18T08:52:33.771Z,19.15
2022-12-18T08:55:36.378Z,16.77
2022-12-18T08:58:38.950Z,16.58
2022-12-18T09:01:41.291Z,18.45
2022-12-18T09:04:45.603Z,20.70
2022-12-18T09:07:49.027Z,19.83
2022-12-18T09:10:51.715Z,19.53
2022-12-18T09:13:54.977Z,17.92
2022-12-18T09:16:57.575Z,18.98
2022-12-18T09:19:59.888Z,18.48
2022-12-18T09:23:02.655Z,18.30
2022-12-18T09:26:05.406Z,19.93
2022-12-18T09:29:10.974Z,19.08
2022-12-18T09:32:16.358Z,18.67
2022-12-18T09:35:23.174Z,18.67
2022-12-18T09:38:25.433Z,20.73
2022-12-18T09:41:45.517Z,19.10
2022-12-18T09:44:53.247Z,20.48
2022-12-18T09:47:56.637Z,22.92
2022-12-18T09:51:10.353Z,20.62
2022-12-18T09:54:36.788Z,19.73
2022-12-18T09:57:49.124Z,18.40
2022-12-18T10:00:54.287Z,19.55
2022-12-18T10:03:57.338Z,16.75
2022-12-18T10:07:21.058Z,19.37
2022-12-18T10:10:43.930Z,21.20
2022-12-18T10:13:54.916Z,17.30
2022-12-18T10:17:20.652Z,18.60
2022-12-18T10:20:35.294Z,17.70
2022-12-18T10:23:58.597Z,18.10
2022-12-18T10:27:14.922Z,18.42
2022-12-18T10:30:20.192Z,18.27
2022-12-18T10:33:25.043Z,19.05
2022-12-18T10:36:27.860Z,19.05
2022-12-18T10:39:30.174Z,20.27
2022-12-18T10:42:32.822Z,19.02
2022-12-18T10:45:36.092Z,19.67
2022-12-18T10:48:47.846Z,20.90
2022-12-18T10:51:51.030Z,21.33
2022-12-18T10:55:02.542Z,21.23
2022-12-18T10:58:28.022Z,19.98
2022-12-18T11:01:53.806Z,18.23
2022-12-18T11:04:56.156Z,20.25
2022-12-18T11:08:00.585Z,20.02
2022-12-18T11:11:03.240Z,19.90
2022-12-18T11:14:13.911Z,21.02
2022-12-18T11:17:37.467Z,20.03
2022-12-18T11:20:40.058Z,22.23
2022-12-18T11:24:00.551Z,23.30
2022-12-18T11:27:06.928Z,21.85
2022-12-18T11:30:26.729Z,21.17
2022-12-18T11:33:29.570Z,22.40
2022-12-18T11:36:40.678Z,20.00
2022-12-18T11:39:53.941Z,22.05
2022-12-18T11:43:05.461Z,18.98
2022-12-18T11:46:37.022Z,20.77
2022-12-18T11:49:42.307Z,21.30
2022-12-18T11:52:45.494Z,22.25
2022-12-18T11:55:54.182Z,19.42
2022-12-18T11:59:11.033Z,23.20
2022-12-18T12:02:22.649Z,20.88
2022-12-18T12:05:55.958Z,20.30
2022-12-18T12:09:07.543Z,20.12
2022-12-18T12:12:28.531Z,21.27
2022-12-18T12:16:18.283Z,23.35
2022-12-18T12:19:26.489Z,19.55
2022-12-18T12:22:45.596Z,27.03
2022-12-18T12:25:57.013Z,21.95
2022-12-18T12:29:27.920Z,21.42
2022-12-18T12:32:55.112Z,20.40
2022-12-18T12:36:12.375Z,19.42
2022-12-18T12:39:22.348Z,19.80
2022-12-18T12:43:07.390Z,19.87
2022-12-18T12:46:12.639Z,20.95
2022-12-18T12:49:28.619Z,20.50
2022-12-18T12:52:31.584Z,20.98
2022-12-18T12:55:35.321Z,21.23
2022-12-18T12:58:51.175Z,18.85
2022-12-18T13:01:56.466Z,19.15
2022-12-18T13:05:21.681Z,18.15
2022-12-18T13:08:27.456Z,18.87
2022-12-18T13:11:59.523Z,14.37
2022-12-18T13:15:33.533Z,15.55
2022-12-18T13:18:40.011Z,15.38
2022-12-18T13:21:52.972Z,17.30
2022-12-18T13:24:55.643Z,16.10
2022-12-18T13:28:13.676Z,15.97
2022-12-18T13:31:41.858Z,15.85
2022-12-18T13:34:44.542Z,14.57
2022-12-18T13:37:54.902Z,13.70
2022-12-18T13:41:02.529Z,14.68
2022-12-18T13:44:30.990Z,14.10
2022-12-18T13:47:36.168Z,16.25
2022-12-18T13:50:40.151Z,14.95
2022-12-18T13:53:56.269Z,15.32
2022-12-18T13:56:59.100Z,15.48
2022-12-18T14:00:19.833Z,14.90
2022-12-18T14:03:28.787Z,15.60
2022-12-18T14:06:32.364Z,18.62
2022-12-18T14:09:43.339Z,17.30
2022-12-18T14:13:03.203Z,20.12
2022-12-18T14:16:09.077Z,20.03
2022-12-18T14:19:18.034Z,21.00
2022-12-18T14:22:28.896Z,25.20
2022-12-18T14:25:31.889Z,21.23
2022-12-18T14:28:45.225Z,23.77
2022-12-18T14:31:47.811Z,22.93
2022-12-18T14:34:55.414Z,24.98
2022-12-18T14:38:25.810Z,22.83
2022-12-18T14:41:29.749Z,24.92
2022-12-18T14:44:44.140Z,22.40
2022-12-18T14:47:47.112Z,21.87
2022-12-18T14:51:16.707Z,22.80
2022-12-18T14:54:21.333Z,23.20
2022-12-18T14:57:27.857Z,23.05
2022-12-18T15:00:31.450Z,22.50
2022-12-18T15:03:33.837Z,23.67
2022-12-18T15:06:38.659Z,23.73
2022-12-18T15:09:43.834Z,21.55
2022-12-18T15:12:49.875Z,21.40
2022-12-18T15:15:54.179Z,23.83
2022-12-18T15:18:56.800Z,22.87
2022-12-18T15:22:04.419Z,23.40
2022-12-18T15:25:37.615Z,22.15
2022-12-18T15:28:45.854Z,23.67
2022-12-18T15:32:06.619Z,25.65
2022-12-18T15:35:11.995Z,23.60
2022-12-18T15:38:14.588Z,24.42
2022-12-18T15:41:24.357Z,25.33
2022-12-18T15:44:27.742Z,22.80
2022-12-18T15:47:30.292Z,23.67
2022-12-18T15:50:33.211Z,21.67
2022-12-18T15:53:36.176Z,22.05
2022-12-18T15:56:57.703Z,25.52
2022-12-18T16:00:01.276Z,23.23
2022-12-18T16:03:05.586Z,24.30
2022-12-18T16:06:10.362Z,22.87
2022-12-18T16:09:13.240Z,23.48
2022-12-18T16:12:22.476Z,22.80
2022-12-18T16:15:25.199Z,23.33
2022-12-18T16:18:27.802Z,24.58
2022-12-18T16:21:33.923Z,24.67
2022-12-18T16:24:37.344Z,24.65
2022-12-18T16:27:39.854Z,24.00
2022-12-18T16:30:43.406Z,23.35
2022-12-18T16:33:45.903Z,24.65
2022-12-18T16:36:49.937Z,20.50
2022-12-18T16:39:52.354Z,17.83
2022-12-18T16:42:54.942Z,18.85
2022-12-18T16:45:59.893Z,20.75
2022-12-18T16:49:02.521Z,21.05
2022-12-18T16:52:06.175Z,24.67
2022-12-18T16:55:09.241Z,24.37
2022-12-18T16:58:11.505Z,24.90
2022-12-18T17:01:14.179Z,24.40
2022-12-18T17:04:17.217Z,24.55
2022-12-18T17:07:19.731Z,25.43
2022-12-18T17:10:22.007Z,26.92
2022-12-18T17:13:27.583Z,26.20
2022-12-18T17:16:29.935Z,25.80
2022-12-18T17:19:33.875Z,25.05
2022-12-18T17:22:36.135Z,24.30
2022-12-18T17:25:41.695Z,25.27
2022-12-18T17:28:44.142Z,23.65
2022-12-18T17:31:47.886Z,23.40
2022-12-18T17:34:50.386Z,24.67
2022-12-18T17:37:52.920Z,25.60
2022-12-18T17:41:01.260Z,22.27
2022-12-18T17:44:06.502Z,22.25
2022-12-18T17:47:12.296Z,23.25
2022-12-18T17:50:16.816Z,28.73
2022-12-18T17:53:21.095Z,23.57
2022-12-18T17:56:26.147Z,24.85
2022-12-18T17:59:39.171Z,24.45
2022-12-18T18:02:42.586Z,23.38
2022-12-18T18:05:46.213Z,23.42
2022-12-18T18:08:49.741Z,25.43
2022-12-18T18:12:11.410Z,26.65
2022-12-18T18:15:14.131Z,26.60
2022-12-18T18:18:16.992Z,23.95
2022-12-18T18:21:20.657Z,26.30
2022-12-18T18:24:24.304Z,27.23
2022-12-18T18:27:26.943Z,26.15
2022-12-18T18:30:30.258Z,25.90
2022-12-18T18:33:33.886Z,25.27
2022-12-18T18:36:36.694Z,25.25
2022-12-18T18:39:39.289Z,24.47
2022-12-18T18:42:42.020Z,24.00
2022-12-18T18:45:46.084Z,25.83
2022-12-18T18:48:50.812Z,23.65
2022-12-18T18:51:54.479Z,24.90
2022-12-18T18:55:12.971Z,21.63
2022-12-18T18:58:16.141Z,23.08
2022-12-18T19:01:21.520Z,26.17
2022-12-18T19:04:23.766Z,26.50
2022-12-18T19:07:30.402Z,28.15
2022-12-18T19:10:33.318Z,26.03
2022-12-18T19:13:35.886Z,26.20
2022-12-18T19:16:38.678Z,25.98
2022-12-18T19:19:41.565Z,27.45
2022-12-18T19:22:47.920Z,28.25
2022-12-18T19:26:27.337Z,31.30
2022-12-18T19:29:27.618Z,31.20
2022-12-18T19:32:31.507Z,31.77
2022-12-18T19:35:33.926Z,30.37
2022-12-18T19:38:36.453Z,31.12
2022-12-18T19:41:39.541Z,31.80
2022-12-18T19:44:42.331Z,30.67
2022-12-18T19:47:44.576Z,35.42
2022-12-18T19:50:47.119Z,34.40
2022-12-18T19:53:54.927Z,34.90
2022-12-18T19:57:00.691Z,33.93
2022-12-18T20:00:03.858Z,35.03
2022-12-18T20:03:23.499Z,33.65
2022-12-18T20:06:34.713Z,31.42
2022-12-18T20:09:36.964Z,33.67
2022-12-18T20:12:39.836Z,32.23
2022-12-18T20:15:45.388Z,35.08
2022-12-18T20:18:49.245Z,37.97
2022-12-18T20:21:51.558Z,37.80
2022-12-18T20:24:54.117Z,35.45
2022-12-18T20:27:56.876Z,32.00
2022-12-18T20:31:04.789Z,30.62
2022-12-18T20:34:07.308Z,34.15
2022-12-18T20:37:10.970Z,30.48
2022-12-18T20:40:14.430Z,30.10
2022-12-18T20:43:17.496Z,31.50
2022-12-18T20:46:20.434Z,31.65
2022-12-18T20:49:24.882Z,32.65
2022-12-18T20:52:27.254Z,30.23
2022-12-18T20:55:30.180Z,33.30
2022-12-18T20:58:32.434Z,32.00
2022-12-18T21:01:35.174Z,34.15
2022-12-18T21:04:38.926Z,31.48
2022-12-18T21:07:41.481Z,33.30
2022-12-18T21:10:43.699Z,33.70
2022-12-18T21:13:46.927Z,35.80
2022-12-18T21:16:50.113Z,33.25
2022-12-18T21:19:53.079Z,33.63
2022-12-18T21:22:57.744Z,32.33
2022-12-18T21:26:16.573Z,32.80
2022-12-18T21:29:26.269Z,35.03
2022-12-18T21:32:32.023Z,34.72
2022-12-18T21:35:36.598Z,36.75
2022-12-18T21:38:39.181Z,34.58
2022-12-18T21:42:00.752Z,37.33
2022-12-18T21:45:03.859Z,33.87
2022-12-18T21:48:06.159Z,35.92
2022-12-18T21:51:08.989Z,36.40
2022-12-18T21:54:11.778Z,36.15
2022-12-18T21:57:14.718Z,37.30
2022-12-18T22:00:19.344Z,37.13
2022-12-18T22:03:22.539Z,35.80
2022-12-18T22:06:24.895Z,36.70
2022-12-18T22:09:27.927Z,38.08
2022-12-18T22:12:43.704Z,35.97
2022-12-18T22:15:47.149Z,36.03
2022-12-18T22:18:49.778Z,38.60
2022-12-18T22:21:52.865Z,39.40
2022-12-18T22:24:55.159Z,35.40
2022-12-18T22:28:16.217Z,36.78
2022-12-18T22:31:18.549Z,38.60
2022-12-18T22:34:23.139Z,36.10
2022-12-18T22:37:25.672Z,39.30
2022-12-18T22:40:28.440Z,35.25
2022-12-18T22:43:30.758Z,37.60
2022-12-18T22:46:37.874Z,36.67
2022-12-18T22:49:40.240Z,35.88
2022-12-18T22:52:42.784Z,34.25
2022-12-18T22:55:45.030Z,36.25
2022-12-18T22:58:49.443Z,33.97
2022-12-18T23:01:54.898Z,34.37
2022-12-18T23:05:01.558Z,36.17
2022-12-18T23:08:03.914Z,33.92
2022-12-18T23:11:06.543Z,31.95
2022-12-18T23:14:08.844Z,34.03
2022-12-18T23:17:11.917Z,34.13
2022-12-18T23:20:14.296Z,33.13
2022-12-18T23:23:17.209Z,36.30
2022-12-18T23:26:22.297Z,35.35
2022-12-18T23:29:24.805Z,38.95
2022-12-18T23:32:27.180Z,34.77
2022-12-18T23:35:30.463Z,34.15
2022-12-18T23:38:33.879Z,31.87
2022-12-18T23:41:36.452Z,32.72
2022-12-18T23:44:38.711Z,33.90
2022-12-18T23:47:41.334Z,30.47
2022-12-18T23:50:43.649Z,30.33
2022-12-18T23:53:46.393Z,30.42
2022-12-18T23:56:48.665Z,32.15
2022-12-18T23:59:53.443Z,30.65
